Time;durP1;ratioP1;P1;durP2;ratioP2;P2;SDS_P1;SDS_P2;PMS_P1;PMS_P2;Temp;Humidity;BMP_temperature;BMP_pressure;BME280_temperature;BME280_humidity;BME280_pressure;Samples;Min_cycle;Max_cycle;Signal;HPM_P1;HPM_P2
2023/04/07 00:01:03;;;;;;;;;;;;;;;4.19;55.77;101906.56;4988539;28;19947;-73
2023/04/07 00:03:28;;;;;;;;;;;;;;;4.27;55.27;101909.06;5003801;28;19957;-75
2023/04/07 00:05:54;;;;;;;;;;;;;;;4.28;55.38;101903.56;5004914;28;19987;-72
2023/04/07 00:08:19;;;;;;;;;;;;;;;4.39;55.39;101908.25;4987880;28;20312;-71
2023/04/07 00:10:48;;;;;;;;;;;;;;;4.42;54.65;101908.91;4971544;28;19948;-75
2023/04/07 00:13:13;;;;;;;;;;;;;;;4.43;54.49;101898.06;4997854;28;19966;-73
2023/04/07 00:15:39;;;;;;;;;;;;;;;4.46;54.20;101900.31;4998511;28;19939;-74
2023/04/07 00:18:04;;;;;;;;;;;;;;;4.31;55.08;101899.66;4993861;28;20044;-73
2023/04/07 00:20:30;;;;;;;;;;;;;;;4.31;54.71;101899.66;5008446;28;19934;-74
2023/04/07 00:22:55;;;;;;;;;;;;;;;4.31;54.59;101897.03;5006410;28;19995;-74
2023/04/07 00:25:20;;;;;;;;;;;;;;;4.17;55.67;101900.66;5003100;28;19946;-74
2023/04/07 00:27:46;;;;;;;;;;;;;;;4.15;55.72;101905.34;5004034;28;19939;-76
2023/04/07 00:30:11;;;;;;;;;;;;;;;4.24;55.17;101904.94;4987325;28;20446;-74
2023/04/07 00:32:37;;;;;;;;;;;;;;;4.23;55.31;101899.84;4970907;28;19977;-74
2023/04/07 00:35:03;;;;;;;;;;;;;;;4.09;55.98;101905.13;4986632;28;19941;-74
2023/04/07 00:37:29;;;;;;;;;;;;;;;4.07;55.76;101896.53;5019991;28;20521;-73
2023/04/07 00:39:56;;;;;;;;;;;;;;;4.09;55.39;101894.50;5018872;28;20425;-73
2023/04/07 00:42:21;;;;;;;;;;;;;;;3.96;55.78;101889.16;4987237;28;21083;-74
2023/04/07 00:44:47;;;;;;;;;;;;;;;4.05;55.67;101897.75;5007711;28;19963;-72
2023/04/07 00:47:14;;;;;;;;;;;;;;;3.98;55.91;101896.91;4986564;28;19943;-75
2023/04/07 00:49:39;;;;;;;;;;;;;;;4.13;54.86;101894.09;4993623;28;19941;-76
2023/04/07 00:52:10;;;;;;;;;;;;;;;4.01;56.02;101893.88;4982119;28;20005;-75
2023/04/07 00:54:37;;;;;;;;;;;;;;;4.09;55.21;101891.03;5024060;28;19994;-73
2023/04/07 00:57:02;;;;;;;;;;;;;;;4.00;55.61;101897.53;4997860;28;19952;-74
2023/04/07 00:59:30;;;;;;;;;;;;;;;3.85;56.56;101897.66;5010139;28;20311;-72
2023/04/07 01:02:25;;;;;;;;;;;;;;;3.97;55.48;101898.72;4995639;28;19964;-73
2023/04/07 01:05:12;;;;;;;;;;;;;;;3.90;56.02;101895.25;4976729;28;20026;-74
2023/04/07 01:07:47;;;;;;;;;;;;;;;3.82;56.30;101892.75;5006015;28;19946;-74
2023/04/07 01:10:16;;;;;;;;;;;;;;;3.89;55.81;101898.91;5002363;28;19942;-72
2023/04/07 01:13:01;;;;;;;;;;;;;;;3.92;55.72;101893.19;4985187;28;19961;-71
2023/04/07 01:15:29;;;;;;;;;;;;;;;4.00;55.24;101890.41;5001442;28;20698;-74
2023/04/07 01:18:14;;;;;;;;;;;;;;;3.98;55.45;101897.72;4989511;28;19938;-73
2023/04/07 01:20:42;;;;;;;;;;;;;;;3.88;56.03;101886.69;4967580;28;19942;-74
2023/04/07 01:23:14;;;;;;;;;;;;;;;3.89;55.46;101892.78;4989640;28;20017;-75
2023/04/07 01:25:58;;;;;;;;;;;;;;;3.87;55.49;101893.00;4984275;28;19963;-75
2023/04/07 01:28:35;;;;;;;;;;;;;;;3.77;55.81;101887.22;5005329;28;19942;-72
2023/04/07 01:31:01;;;;;;;;;;;;;;;3.72;56.06;101892.28;5003069;28;19939;-75
2023/04/07 01:33:30;;;;;;;;;;;;;;;3.72;56.31;101886.97;5000656;28;20665;-73
2023/04/07 01:35:58;;;;;;;;;;;;;;;3.66;56.11;101887.75;4998445;28;20041;-74
2023/04/07 01:38:24;;;;;;;;;;;;;;;3.67;56.02;101889.44;5000919;28;20390;-73
2023/04/07 01:40:51;;;;;;;;;;;;;;;3.63;56.01;101893.47;5002161;28;20033;-75
2023/04/07 01:43:17;;;;;;;;;;;;;;;3.44;56.47;101885.19;4996875;28;19983;-74
2023/04/07 01:45:44;;;;;;;;;;;;;;;3.28;57.24;101885.50;4999321;28;20353;-72
2023/04/07 01:48:10;;;;;;;;;;;;;;;3.34;57.22;101892.69;5002457;28;20027;-74
2023/04/07 01:50:37;;;;;;;;;;;;;;;3.23;57.93;101903.78;5019572;28;19938;-74
2023/04/07 01:53:03;;;;;;;;;;;;;;;3.12;58.06;101899.03;5005646;28;20003;-74
2023/04/07 01:55:32;;;;;;;;;;;;;;;2.98;58.36;101893.66;5004780;28;19936;-74
2023/04/07 01:58:05;;;;;;;;;;;;;;;2.94;58.82;101896.84;4997671;28;19944;-75
2023/04/07 02:00:31;;;;;;;;;;;;;;;2.77;59.50;101906.06;5001570;28;20011;-75
2023/04/07 02:03:00;;;;;;;;;;;;;;;2.51;60.24;101906.59;5001813;28;19957;-75
2023/04/07 02:05:28;;;;;;;;;;;;;;;2.63;59.84;101902.47;4991145;28;19977;-74
2023/04/07 02:08:00;;;;;;;;;;;;;;;2.46;60.59;101900.06;4991539;28;20026;-75
2023/04/07 02:10:28;;;;;;;;;;;;;;;2.45;60.76;101906.38;5005839;28;19929;-74
2023/04/07 02:12:57;;;;;;;;;;;;;;;2.49;60.30;101905.97;5002767;28;20120;-74
2023/04/07 02:15:23;;;;;;;;;;;;;;;2.60;59.58;101916.06;5023232;28;19933;-74
2023/04/07 02:17:51;;;;;;;;;;;;;;;2.72;59.33;101911.94;5002812;28;20000;-74
2023/04/07 02:20:18;;;;;;;;;;;;;;;2.64;59.39;101901.44;4987144;28;19980;-74
2023/04/07 02:22:44;;;;;;;;;;;;;;;2.37;60.62;101903.84;4988118;28;20400;-74
2023/04/07 02:25:24;;;;;;;;;;;;;;;2.29;60.83;101913.69;4991134;28;19956;-74
2023/04/07 02:27:50;;;;;;;;;;;;;;;2.34;60.43;101914.78;4998218;28;19934;-73
2023/04/07 02:30:18;;;;;;;;;;;;;;;2.38;60.22;101915.25;4999287;28;19926;-75
2023/04/07 02:32:44;;;;;;;;;;;;;;;2.30;60.49;101921.44;5015496;28;19999;-75
2023/04/07 02:35:11;;;;;;;;;;;;;;;2.12;61.63;101926.31;4991390;28;19934;-73
2023/04/07 02:37:36;;;;;;;;;;;;;;;2.30;60.54;101918.78;4985952;28;19947;-74
2023/04/07 02:40:02;;;;;;;;;;;;;;;2.18;60.79;101930.88;4984549;28;19927;-74
2023/04/07 02:42:28;;;;;;;;;;;;;;;1.88;62.42;101925.59;5019132;28;20063;-73
2023/04/07 02:44:54;;;;;;;;;;;;;;;2.05;61.07;101922.78;4983031;28;20029;-74
2023/04/07 02:47:19;;;;;;;;;;;;;;;2.11;61.33;101920.22;5019051;28;19952;-74
2023/04/07 02:49:45;;;;;;;;;;;;;;;2.02;61.55;101933.69;4984870;28;20022;-75
2023/04/07 02:52:11;;;;;;;;;;;;;;;1.92;61.95;101929.53;5002957;28;19967;-71
2023/04/07 02:54:37;;;;;;;;;;;;;;;1.82;62.38;101931.59;5004319;28;20030;-74
2023/04/07 02:57:03;;;;;;;;;;;;;;;1.90;61.62;101934.19;5001577;28;19968;-75
2023/04/07 02:59:29;;;;;;;;;;;;;;;1.66;63.46;101929.16;4999789;28;19935;-74
2023/04/07 03:01:55;;;;;;;;;;;;;;;2.05;61.34;101935.97;5000367;28;19964;-75
2023/04/07 03:04:21;;;;;;;;;;;;;;;1.99;61.75;101942.81;4987818;28;19934;-73
2023/04/07 03:06:46;;;;;;;;;;;;;;;1.93;62.02;101935.63;5001582;28;19988;-73
2023/04/07 03:09:14;;;;;;;;;;;;;;;1.91;62.44;101935.81;5002249;28;20275;-75
2023/04/07 03:11:40;;;;;;;;;;;;;;;1.96;62.13;101931.78;5020292;28;20582;-74
2023/04/07 03:14:09;;;;;;;;;;;;;;;1.79;62.96;101931.16;4971618;28;19990;-76
2023/04/07 03:16:41;;;;;;;;;;;;;;;1.88;62.46;101930.88;4979675;28;19929;-76
2023/04/07 03:19:10;;;;;;;;;;;;;;;2.01;61.80;101929.41;4987410;28;19936;-75
2023/04/07 03:21:42;;;;;;;;;;;;;;;2.04;61.57;101926.44;5013901;28;19956;-75
2023/04/07 03:24:08;;;;;;;;;;;;;;;2.03;61.88;101937.97;4995582;28;20458;-76
2023/04/07 03:26:34;;;;;;;;;;;;;;;1.91;62.24;101938.47;4998897;28;19980;-75
2023/04/07 03:29:00;;;;;;;;;;;;;;;1.90;62.59;101938.66;5012819;28;19985;-74
2023/04/07 03:31:29;;;;;;;;;;;;;;;1.94;62.26;101934.63;4994793;28;19956;-73
2023/04/07 03:33:54;;;;;;;;;;;;;;;1.92;62.07;101937.44;5018076;28;19948;-74
2023/04/07 03:36:21;;;;;;;;;;;;;;;1.95;62.06;101943.34;4982821;28;20037;-75
2023/04/07 03:38:46;;;;;;;;;;;;;;;1.98;61.61;101940.38;4986896;28;20011;-74
2023/04/07 03:41:12;;;;;;;;;;;;;;;2.03;61.54;101937.97;5000042;28;19933;-73
2023/04/07 03:43:40;;;;;;;;;;;;;;;1.94;61.81;101945.19;4999560;28;19959;-73
2023/04/07 03:46:06;;;;;;;;;;;;;;;1.89;62.27;101951.00;4987615;28;19937;-73
2023/04/07 03:48:32;;;;;;;;;;;;;;;1.86;62.12;101948.75;4993857;28;20025;-74
2023/04/07 03:51:05;;;;;;;;;;;;;;;1.85;62.27;101957.69;4983394;28;19941;-74
2023/04/07 03:53:32;;;;;;;;;;;;;;;1.93;61.89;101948.84;5000563;28;19959;-73
2023/04/07 03:56:01;;;;;;;;;;;;;;;1.92;62.09;101957.75;5003746;28;19933;-73
2023/04/07 03:58:43;;;;;;;;;;;;;;;1.89;61.77;101964.22;4988944;28;19945;-74
2023/04/07 04:01:14;;;;;;;;;;;;;;;1.95;60.99;101956.56;4986508;28;19984;-74
2023/04/07 04:03:41;;;;;;;;;;;;;;;1.95;61.05;101956.56;4980287;28;19957;-75
2023/04/07 04:06:27;;;;;;;;;;;;;;;1.98;60.45;101961.50;4979266;28;19940;-73
2023/04/07 04:08:59;;;;;;;;;;;;;;;1.94;60.65;101954.94;4991363;28;19940;-73
2023/04/07 04:11:26;;;;;;;;;;;;;;;1.87;60.84;101958.31;4983656;28;19932;-74
2023/04/07 04:13:59;;;;;;;;;;;;;;;1.79;61.22;101955.75;4983083;28;20016;-74
2023/04/07 04:16:25;;;;;;;;;;;;;;;1.74;61.42;101955.47;4984610;28;19935;-72
2023/04/07 04:18:53;;;;;;;;;;;;;;;1.77;61.24;101960.41;4982077;28;19933;-75
2023/04/07 04:21:20;;;;;;;;;;;;;;;1.58;62.10;101960.94;5000937;28;20029;-74
2023/04/07 04:23:45;;;;;;;;;;;;;;;1.63;61.65;101966.50;4970772;28;20045;-74
2023/04/07 04:26:11;;;;;;;;;;;;;;;1.61;61.94;101968.47;4979768;28;19930;-73
2023/04/07 04:28:39;;;;;;;;;;;;;;;1.64;62.01;101962.84;5020344;28;20330;-74
2023/04/07 04:31:06;;;;;;;;;;;;;;;1.68;61.58;101966.75;4971243;28;19957;-75
2023/04/07 04:33:37;;;;;;;;;;;;;;;1.70;61.58;101964.78;5002760;28;19937;-74
2023/04/07 04:36:03;;;;;;;;;;;;;;;1.56;62.71;101968.22;4990286;28;20270;-73
2023/04/07 04:38:29;;;;;;;;;;;;;;;1.49;62.71;101976.03;4988128;28;20387;-76
2023/04/07 04:41:12;;;;;;;;;;;;;;;1.50;62.79;101972.41;4997632;28;19937;-74
2023/04/07 04:43:38;;;;;;;;;;;;;;;1.55;61.96;101977.13;4981023;28;20613;-76
2023/04/07 04:46:05;;;;;;;;;;;;;;;1.55;62.11;101972.66;5007724;28;19936;-76
2023/04/07 04:48:35;;;;;;;;;;;;;;;1.41;62.60;101976.09;4992756;28;20036;-74
2023/04/07 04:51:03;;;;;;;;;;;;;;;1.33;62.63;101984.09;4987890;28;19939;-74
2023/04/07 04:53:30;;;;;;;;;;;;;;;1.39;62.46;101978.09;5002028;28;19951;-74
2023/04/07 04:55:59;;;;;;;;;;;;;;;1.40;62.47;101984.19;5004395;28;20322;-75
2023/04/07 04:58:35;;;;;;;;;;;;;;;1.40;62.25;101990.28;4987321;28;20074;-75
2023/04/07 05:01:00;;;;;;;;;;;;;;;1.41;61.99;101991.94;5000638;28;20040;-73
2023/04/07 05:03:49;;;;;;;;;;;;;;;1.49;61.69;102001.59;4991945;28;19958;-76
2023/04/07 05:06:22;;;;;;;;;;;;;;;1.47;61.73;102000.97;4987520;28;19925;-75
2023/04/07 05:08:50;;;;;;;;;;;;;;;1.40;62.06;102005.31;5002590;28;19932;-74
2023/04/07 05:11:20;;;;;;;;;;;;;;;1.23;62.94;102007.28;4997260;28;20058;-73
2023/04/07 05:13:49;;;;;;;;;;;;;;;1.23;63.02;102009.91;5001728;28;20409;-75
2023/04/07 05:16:15;;;;;;;;;;;;;;;1.43;62.33;102015.53;5002994;28;19936;-76
2023/04/07 05:18:41;;;;;;;;;;;;;;;1.36;63.07;102015.44;5006981;28;19961;-74
2023/04/07 05:21:06;;;;;;;;;;;;;;;1.28;63.64;102015.47;4984593;28;20431;-75
2023/04/07 05:23:35;;;;;;;;;;;;;;;1.16;65.25;102023.00;4988912;28;19976;-74
2023/04/07 05:26:01;;;;;;;;;;;;;;;1.00;65.34;102028.38;4969155;28;19935;-74
2023/04/07 05:28:27;;;;;;;;;;;;;;;1.18;64.91;102028.91;5021940;28;19944;-75
2023/04/07 05:30:56;;;;;;;;;;;;;;;1.14;64.98;102030.25;5004982;28;20190;-74
2023/04/07 05:33:26;;;;;;;;;;;;;;;1.17;65.57;102024.63;4993988;28;19945;-73
2023/04/07 05:35:53;;;;;;;;;;;;;;;1.32;65.28;102041.34;5003701;28;19935;-73
2023/04/07 05:38:18;;;;;;;;;;;;;;;1.67;62.96;102032.97;4986097;28;19934;-73
2023/04/07 05:40:46;;;;;;;;;;;;;;;1.83;62.15;102038.94;5018598;28;19945;-75
2023/04/07 05:43:17;;;;;;;;;;;;;;;1.92;62.14;102037.03;5002321;28;19976;-76
2023/04/07 05:45:43;;;;;;;;;;;;;;;2.07;61.65;102034.38;5021418;28;19931;-74
2023/04/07 05:48:09;;;;;;;;;;;;;;;2.28;60.79;102037.13;4988869;28;19991;-74
2023/04/07 05:50:41;;;;;;;;;;;;;;;2.32;60.81;102048.16;5005599;28;20003;-75
2023/04/07 05:53:10;;;;;;;;;;;;;;;2.53;59.54;102042.94;4997336;28;19961;-73
2023/04/07 05:55:36;;;;;;;;;;;;;;;2.58;59.16;102039.75;4991113;28;19938;-73
2023/04/07 05:58:04;;;;;;;;;;;;;;;2.71;58.56;102053.13;4983957;28;19939;-73
2023/04/07 06:00:31;;;;;;;;;;;;;;;2.89;58.32;102055.34;5022554;28;19938;-73
2023/04/07 06:03:06;;;;;;;;;;;;;;;3.04;57.88;102052.66;4988670;28;19968;-74
2023/04/07 06:05:42;;;;;;;;;;;;;;;3.19;57.34;102056.91;5014896;28;19943;-73
2023/04/07 06:08:12;;;;;;;;;;;;;;;3.34;56.57;102059.50;5017866;28;20025;-74
2023/04/07 06:10:40;;;;;;;;;;;;;;;3.44;55.48;102053.88;4995471;28;19946;-75
2023/04/07 06:13:05;;;;;;;;;;;;;;;3.59;55.60;102048.50;4990827;28;19953;-73
2023/04/07 06:15:31;;;;;;;;;;;;;;;3.70;55.38;102058.59;5014068;28;19942;-72
2023/04/07 06:17:57;;;;;;;;;;;;;;;3.83;54.91;102064.00;5016408;28;19963;-73
2023/04/07 06:20:23;;;;;;;;;;;;;;;3.95;54.10;102064.28;5002112;28;20312;-75
2023/04/07 06:22:50;;;;;;;;;;;;;;;4.03;54.44;102064.13;4985295;28;20030;-75
2023/04/07 06:25:15;;;;;;;;;;;;;;;4.27;53.51;102076.13;5020289;28;20716;-75
2023/04/07 06:27:41;;;;;;;;;;;;;;;4.38;53.32;102067.59;4981185;28;20391;-73
2023/04/07 06:30:07;;;;;;;;;;;;;;;4.41;53.08;102066.41;4998380;28;19941;-73
2023/04/07 06:32:34;;;;;;;;;;;;;;;4.62;52.45;102071.63;4996160;28;19966;-76
2023/04/07 06:34:59;;;;;;;;;;;;;;;4.72;52.22;102073.88;4989087;28;19933;-74
2023/04/07 06:37:25;;;;;;;;;;;;;;;4.78;52.03;102078.41;4980478;28;20023;-74
2023/04/07 06:39:50;;;;;;;;;;;;;;;4.86;50.71;102070.25;4996934;28;19937;-74
2023/04/07 06:42:16;;;;;;;;;;;;;;;4.91;50.52;102079.28;4998422;28;20359;-75
2023/04/07 06:44:50;;;;;;;;;;;;;;;5.02;50.89;102072.56;5004905;28;19935;-74
2023/04/07 06:47:15;;;;;;;;;;;;;;;5.22;50.22;102085.09;5001730;28;20392;-73
2023/04/07 06:49:41;;;;;;;;;;;;;;;5.23;50.07;102092.84;4987192;28;19933;-74
2023/04/07 06:52:07;;;;;;;;;;;;;;;5.38;49.66;102087.34;4998217;28;19959;-74
2023/04/07 06:54:32;;;;;;;;;;;;;;;5.45;49.43;102096.16;5002136;28;19936;-74
2023/04/07 06:56:58;;;;;;;;;;;;;;;5.56;49.15;102092.09;5020583;28;19975;-72
2023/04/07 06:59:23;;;;;;;;;;;;;;;5.62;48.31;102089.44;5021501;28;19986;-73
2023/04/07 07:01:49;;;;;;;;;;;;;;;5.71;48.86;102085.56;5000499;28;20002;-72
2023/04/07 07:04:14;;;;;;;;;;;;;;;5.82;48.22;102083.28;4984182;28;19961;-74
2023/04/07 07:06:40;;;;;;;;;;;;;;;5.80;47.86;102093.31;5000590;28;19982;-74
2023/04/07 07:09:06;;;;;;;;;;;;;;;5.88;47.59;102090.44;5014902;28;19952;-73
2023/04/07 07:11:31;;;;;;;;;;;;;;;6.01;47.25;102093.13;5002260;28;19948;-73
2023/04/07 07:13:57;;;;;;;;;;;;;;;6.02;46.93;102097.41;4988543;28;19982;-74
2023/04/07 07:16:23;;;;;;;;;;;;;;;6.20;47.14;102094.94;4986716;28;20275;-70
2023/04/07 07:18:49;;;;;;;;;;;;;;;6.21;46.84;102085.13;4986395;28;19946;-74
2023/04/07 07:21:15;;;;;;;;;;;;;;;6.38;47.22;102088.16;4989848;28;20384;-75
2023/04/07 07:23:40;;;;;;;;;;;;;;;6.61;46.07;102085.03;5001573;28;20004;-74
2023/04/07 07:26:06;;;;;;;;;;;;;;;6.50;46.69;102097.13;4984451;28;19981;-71
2023/04/07 07:28:31;;;;;;;;;;;;;;;6.62;45.77;102092.78;5019475;28;19937;-74
2023/04/07 07:30:57;;;;;;;;;;;;;;;6.74;45.10;102099.09;5000119;28;19934;-74
2023/04/07 07:33:22;;;;;;;;;;;;;;;6.82;45.35;102106.03;5002614;28;19950;-73
2023/04/07 07:35:48;;;;;;;;;;;;;;;6.86;44.89;102095.78;5002379;28;19941;-74
2023/04/07 07:38:13;;;;;;;;;;;;;;;7.01;45.09;102107.78;5003022;28;19939;-73
2023/04/07 07:40:39;;;;;;;;;;;;;;;7.28;45.11;102108.47;4983520;28;20016;-73
2023/04/07 07:43:05;;;;;;;;;;;;;;;7.25;44.49;102103.56;4997621;28;19972;-72
2023/04/07 07:45:30;;;;;;;;;;;;;;;7.15;44.48;102110.38;5002977;28;20031;-72
2023/04/07 07:47:56;;;;;;;;;;;;;;;7.22;45.22;102113.84;4997207;28;20039;-73
2023/04/07 07:50:21;;;;;;;;;;;;;;;7.24;43.73;102112.56;5005329;28;19936;-71
2023/04/07 07:52:47;;;;;;;;;;;;;;;7.33;43.75;102121.97;4986132;28;19954;-74
2023/04/07 07:55:13;;;;;;;;;;;;;;;7.43;44.08;102115.34;4986968;28;19943;-74
2023/04/07 07:57:38;;;;;;;;;;;;;;;7.60;44.35;102117.28;4986173;28;20267;-73
2023/04/07 08:00:04;;;;;;;;;;;;;;;7.57;43.53;102119.56;5005177;28;19997;-72
2023/04/07 08:02:38;;;;;;;;;;;;;;;7.73;43.52;102121.72;5020185;28;19953;-73
2023/04/07 08:05:04;;;;;;;;;;;;;;;7.85;42.94;102125.28;4998451;28;20292;-73
2023/04/07 08:07:31;;;;;;;;;;;;;;;8.26;43.11;102128.41;5009049;28;20035;-73
2023/04/07 08:09:56;;;;;;;;;;;;;;;8.01;41.94;102123.13;4982579;28;20361;-72
2023/04/07 08:12:22;;;;;;;;;;;;;;;8.20;41.98;102135.47;4998236;28;19960;-74
2023/04/07 08:14:48;;;;;;;;;;;;;;;8.37;43.07;102133.06;4986536;28;19944;-74
2023/04/07 08:17:14;;;;;;;;;;;;;;;8.47;42.13;102139.56;5002453;28;19937;-73
2023/04/07 08:19:39;;;;;;;;;;;;;;;8.60;42.09;102135.94;5008658;28;19937;-73
2023/04/07 08:22:05;;;;;;;;;;;;;;;8.42;40.81;102131.38;5024191;28;20320;-73
2023/04/07 08:24:30;;;;;;;;;;;;;;;8.36;41.00;102139.47;5020435;28;19936;-74
2023/04/07 08:26:56;;;;;;;;;;;;;;;8.34;41.20;102147.66;5004236;28;19936;-73
2023/04/07 08:29:21;;;;;;;;;;;;;;;8.33;41.41;102140.69;4987146;28;19937;-74
2023/04/07 08:31:47;;;;;;;;;;;;;;;8.28;41.74;102135.19;5000210;28;19998;-73
2023/04/07 08:34:12;;;;;;;;;;;;;;;8.09;41.44;102146.84;4985818;28;19941;-73
2023/04/07 08:36:38;;;;;;;;;;;;;;;7.85;41.31;102148.47;4989672;28;19934;-73
2023/04/07 08:39:04;;;;;;;;;;;;;;;7.97;42.07;102153.94;5007588;28;19961;-73
2023/04/07 08:41:36;;;;;;;;;;;;;;;8.45;42.09;102146.94;4992105;28;20319;-73
2023/04/07 08:44:02;;;;;;;;;;;;;;;8.41;40.45;102144.97;5009909;28;19988;-73
2023/04/07 08:46:28;;;;;;;;;;;;;;;8.47;40.88;102144.88;5003868;28;20762;-71
2023/04/07 08:48:54;;;;;;;;;;;;;;;8.43;40.69;102149.03;5007789;28;19937;-72
2023/04/07 08:51:31;;;;;;;;;;;;;;;8.62;42.21;102149.06;4994316;28;19931;-70
2023/04/07 08:54:02;;;;;;;;;;;;;;;8.67;40.44;102150.03;4975783;28;19975;-72
2023/04/07 08:56:28;;;;;;;;;;;;;;;8.89;40.02;102139.69;5003471;28;19937;-72
2023/04/07 08:58:54;;;;;;;;;;;;;;;9.14;39.96;102141.44;4989366;28;19938;-72
2023/04/07 09:01:20;;;;;;;;;;;;;;;9.24;39.56;102141.72;5000053;28;19940;-72
2023/04/07 09:03:47;;;;;;;;;;;;;;;9.40;39.52;102141.06;4986170;28;19959;-76
2023/04/07 09:06:15;;;;;;;;;;;;;;;9.63;39.84;102143.03;4987443;28;19981;-74
2023/04/07 09:08:40;;;;;;;;;;;;;;;9.52;39.02;102133.91;4989106;28;20030;-72
2023/04/07 09:11:06;;;;;;;;;;;;;;;9.58;38.78;102134.84;5004501;28;20055;-73
2023/04/07 09:13:32;;;;;;;;;;;;;;;9.66;38.42;102147.91;5001550;28;20337;-73
2023/04/07 09:16:00;;;;;;;;;;;;;;;9.68;38.30;102148.47;5000256;28;19941;-73
2023/04/07 09:18:26;;;;;;;;;;;;;;;9.66;38.26;102141.72;4998660;28;19945;-73
2023/04/07 09:20:56;;;;;;;;;;;;;;;9.56;38.80;102143.13;4970460;28;19971;-74
2023/04/07 09:23:32;;;;;;;;;;;;;;;9.45;38.71;102137.72;5016448;28;20440;-71
2023/04/07 09:26:00;;;;;;;;;;;;;;;9.50;38.66;102138.69;5001336;28;20018;-72
2023/04/07 09:28:46;;;;;;;;;;;;;;;9.77;39.44;102140.94;5000250;28;19934;-72
2023/04/07 09:31:11;;;;;;;;;;;;;;;10.12;38.98;102135.63;5003746;28;19997;-72
2023/04/07 09:33:37;;;;;;;;;;;;;;;9.95;37.61;102148.06;5005277;28;20413;-73
2023/04/07 09:36:05;;;;;;;;;;;;;;;9.79;37.25;102133.50;4991389;28;19930;-73
2023/04/07 09:38:34;;;;;;;;;;;;;;;9.97;36.94;102144.13;5004298;28;19934;-73
2023/04/07 09:41:07;;;;;;;;;;;;;;;9.92;37.76;102135.97;5021247;28;19984;-72
2023/04/07 09:43:34;;;;;;;;;;;;;;;10.04;36.16;102128.75;4984782;28;19980;-71
2023/04/07 09:46:07;;;;;;;;;;;;;;;9.99;37.00;102133.19;5001210;28;20299;-71
2023/04/07 09:48:33;;;;;;;;;;;;;;;10.17;36.56;102126.91;5004991;28;19958;-73
2023/04/07 09:51:12;;;;;;;;;;;;;;;10.10;36.25;102125.16;4986942;28;20029;-71
2023/04/07 09:53:42;;;;;;;;;;;;;;;10.35;35.40;102124.94;4983397;28;20067;-70
2023/04/07 09:56:12;;;;;;;;;;;;;;;10.24;35.95;102116.94;4982317;28;20391;-71
2023/04/07 09:58:42;;;;;;;;;;;;;;;10.45;35.25;102124.38;4998381;28;19938;-71
2023/04/07 10:01:11;;;;;;;;;;;;;;;10.27;36.21;102116.44;4996670;28;19994;-70
2023/04/07 10:03:37;;;;;;;;;;;;;;;9.97;36.52;102135.28;5009027;28;19970;-71
2023/04/07 10:06:03;;;;;;;;;;;;;;;10.33;37.14;102127.03;4992581;28;19948;-72
2023/04/07 10:08:36;;;;;;;;;;;;;;;9.93;35.74;102126.06;5000157;28;19966;-71
2023/04/07 10:11:02;;;;;;;;;;;;;;;9.78;36.55;102129.19;5004226;28;19937;-72
2023/04/07 10:13:29;;;;;;;;;;;;;;;10.05;35.66;102124.22;5001007;28;19955;-72
2023/04/07 10:15:54;;;;;;;;;;;;;;;9.93;36.27;102132.25;4989857;28;20065;-71
2023/04/07 10:18:21;;;;;;;;;;;;;;;10.18;35.97;102125.88;4994044;28;20011;-72
2023/04/07 10:20:48;;;;;;;;;;;;;;;10.39;36.00;102133.34;5002519;28;20425;-72
2023/04/07 10:23:32;;;;;;;;;;;;;;;10.10;35.46;102127.03;4999821;28;19960;-70
2023/04/07 10:25:59;;;;;;;;;;;;;;;10.10;35.56;102133.19;5000838;28;19956;-71
2023/04/07 10:28:26;;;;;;;;;;;;;;;10.05;34.75;102134.94;4982876;28;19944;-71
2023/04/07 10:30:52;;;;;;;;;;;;;;;10.17;34.99;102126.91;5020921;28;19993;-71
2023/04/07 10:33:40;;;;;;;;;;;;;;;10.07;34.67;102132.84;4986447;28;19957;-70
2023/04/07 10:36:06;;;;;;;;;;;;;;;10.36;34.93;102129.28;4981560;28;19936;-72
2023/04/07 10:38:35;;;;;;;;;;;;;;;10.61;35.33;102137.03;4997221;28;19933;-72
2023/04/07 10:41:20;;;;;;;;;;;;;;;10.97;34.97;102127.03;5007102;28;20023;-73
2023/04/07 10:43:46;;;;;;;;;;;;;;;11.24;34.05;102127.25;4995046;28;19959;-72
2023/04/07 10:46:12;;;;;;;;;;;;;;;11.36;33.72;102125.34;4995069;28;19942;-73
2023/04/07 10:48:37;;;;;;;;;;;;;;;11.12;32.85;102134.56;4997386;28;19987;-73
2023/04/07 10:51:03;;;;;;;;;;;;;;;10.99;34.29;102135.66;4999248;28;19956;-70
2023/04/07 10:53:28;;;;;;;;;;;;;;;10.96;33.89;102122.72;5017835;28;19976;-72
2023/04/07 10:55:55;;;;;;;;;;;;;;;11.19;33.64;102130.69;5014811;28;19939;-72
2023/04/07 10:58:33;;;;;;;;;;;;;;;11.25;33.62;102125.44;4998436;28;19936;-71
2023/04/07 11:00:59;;;;;;;;;;;;;;;11.29;34.16;102134.59;5003227;28;19941;-73
2023/04/07 11:03:26;;;;;;;;;;;;;;;11.82;34.02;102128.84;4984059;28;19983;-73
2023/04/07 11:05:52;;;;;;;;;;;;;;;11.59;33.93;102137.03;5019549;28;20046;-74
2023/04/07 11:08:32;;;;;;;;;;;;;;;11.94;34.84;102134.16;5015372;28;20027;-74
2023/04/07 11:10:58;;;;;;;;;;;;;;;11.77;33.75;102126.84;5004294;28;20453;-72
2023/04/07 11:13:23;;;;;;;;;;;;;;;12.03;35.12;102133.47;5002262;28;20087;-74
2023/04/07 11:15:51;;;;;;;;;;;;;;;12.14;34.57;102120.22;4998693;28;20033;-73
2023/04/07 11:18:17;;;;;;;;;;;;;;;11.53;33.70;102128.06;4997747;28;20010;-73
2023/04/07 11:20:45;;;;;;;;;;;;;;;11.78;33.48;102124.97;5003888;28;19937;-74
2023/04/07 11:23:11;;;;;;;;;;;;;;;11.43;33.46;102125.19;4992705;28;20060;-72
2023/04/07 11:25:37;;;;;;;;;;;;;;;12.00;33.16;102130.50;4992642;28;19936;-72
2023/04/07 11:28:03;;;;;;;;;;;;;;;11.69;34.35;102121.91;4987423;28;19943;-72
2023/04/07 11:30:29;;;;;;;;;;;;;;;11.10;33.61;102118.69;5000184;28;19932;-74
2023/04/07 11:32:55;;;;;;;;;;;;;;;11.64;33.67;102127.19;4995020;28;20335;-74
2023/04/07 11:35:21;;;;;;;;;;;;;;;11.89;33.76;102128.69;4984699;28;19938;-71
2023/04/07 11:37:47;;;;;;;;;;;;;;;11.98;33.72;102125.34;5021877;28;20373;-73
2023/04/07 11:40:30;;;;;;;;;;;;;;;11.61;35.35;102133.03;4984172;28;19934;-73
2023/04/07 11:42:56;;;;;;;;;;;;;;;11.64;34.81;102129.03;4996735;28;19968;-72
2023/04/07 11:45:22;;;;;;;;;;;;;;;11.60;35.06;102126.06;5001438;28;19932;-71
2023/04/07 11:47:49;;;;;;;;;;;;;;;11.80;35.62;102130.94;4997082;28;19944;-73
2023/04/07 11:50:15;;;;;;;;;;;;;;;11.81;34.65;102131.78;4999523;28;19940;-71
2023/04/07 11:52:41;;;;;;;;;;;;;;;11.79;33.85;102126.63;5004232;28;19951;-72
2023/04/07 11:55:15;;;;;;;;;;;;;;;12.12;35.08;102125.81;5000412;28;19947;-73
2023/04/07 11:57:41;;;;;;;;;;;;;;;12.06;34.24;102129.50;5007165;28;20323;-73
2023/04/07 12:00:07;;;;;;;;;;;;;;;12.61;32.99;102120.59;4985661;28;19940;-73
2023/04/07 12:02:34;;;;;;;;;;;;;;;12.57;32.27;102122.97;4995069;28;19967;-72
2023/04/07 12:05:00;;;;;;;;;;;;;;;11.89;33.51;102128.69;5002608;28;20025;-74
2023/04/07 12:07:25;;;;;;;;;;;;;;;11.67;33.67;102133.94;5000033;28;19968;-72
2023/04/07 12:09:53;;;;;;;;;;;;;;;11.88;32.46;102130.56;4999262;28;20048;-72
2023/04/07 12:12:26;;;;;;;;;;;;;;;12.65;32.00;102126.28;4970126;28;19968;-72
2023/04/07 12:14:51;;;;;;;;;;;;;;;12.44;31.44;102127.88;5003452;28;19941;-73
2023/04/07 12:17:24;;;;;;;;;;;;;;;12.08;31.20;102126.56;4999882;28;19932;-73
2023/04/07 12:19:50;;;;;;;;;;;;;;;12.16;33.02;102140.38;4998916;28;19934;-73
2023/04/07 12:22:15;;;;;;;;;;;;;;;12.34;31.88;102143.88;4997192;28;19967;-73
2023/04/07 12:24:41;;;;;;;;;;;;;;;12.66;32.42;102144.84;4996777;28;19961;-72
2023/04/07 12:27:06;;;;;;;;;;;;;;;12.35;32.65;102145.50;4997125;28;20520;-75
2023/04/07 12:29:32;;;;;;;;;;;;;;;12.17;32.86;102149.25;4969994;28;19941;-73
2023/04/07 12:31:58;;;;;;;;;;;;;;;13.32;31.62;102137.56;4998811;28;19952;-72
2023/04/07 12:34:26;;;;;;;;;;;;;;;13.40;32.37;102141.66;5004996;28;19934;-72
2023/04/07 12:36:52;;;;;;;;;;;;;;;12.48;32.14;102145.97;4999623;28;19950;-73
2023/04/07 12:39:17;;;;;;;;;;;;;;;12.97;32.19;102139.84;4999863;28;19936;-71
2023/04/07 12:41:44;;;;;;;;;;;;;;;13.99;32.55;102136.25;4980193;28;19974;-73
2023/04/07 12:44:10;;;;;;;;;;;;;;;13.62;31.71;102136.25;5018436;28;20334;-73
2023/04/07 12:46:36;;;;;;;;;;;;;;;13.31;32.58;102146.72;5005050;28;19942;-73
2023/04/07 12:49:02;;;;;;;;;;;;;;;12.79;32.79;102144.47;4987698;28;20332;-72